Time;durP1;ratioP1;P1;durP2;ratioP2;P2;SDS_P1;SDS_P2;PMS_P1;PMS_P2;Temp;Humidity;BMP_temperature;BMP_pressure;BME280_temperature;BME280_humidity;BME280_pressure;Samples;Min_cycle;Max_cycle;Signal;HPM_P1;HPM_P2
2021/09/29 00:02:01;;;;;;;;;1.50;0.50;;;;;17.65;53.25;101322.81;4962808;28;45273;-70
2021/09/29 00:04:26;;;;;;;;;2.00;0.00;;;;;17.59;53.41;101306.91;4957724;28;45426;-70
2021/09/29 00:06:52;;;;;;;;;0.50;0.50;;;;;17.46;53.85;101273.44;4928186;28;45311;-70
2021/09/29 00:09:17;;;;;;;;;0.50;0.00;;;;;17.50;53.81;101284.00;4958181;28;45418;-70
2021/09/29 00:11:43;;;;;;;;;0.75;0.25;;;;;17.68;54.02;101302.88;4962815;28;45339;-70
2021/09/29 00:14:08;;;;;;;;;2.00;0.00;;;;;17.64;53.62;101294.09;4956250;28;45399;-70
2021/09/29 00:16:34;;;;;;;;;0.25;0.25;;;;;17.55;53.89;101275.66;4945282;28;45251;-70
2021/09/29 00:18:59;;;;;;;;;1.25;0.00;;;;;17.61;53.91;101283.44;4962602;28;45497;-70
2021/09/29 00:21:25;;;;;;;;;0.50;0.50;;;;;17.40;53.81;101259.31;4954490;28;45415;-70
2021/09/29 00:23:50;;;;;;;;;0.50;0.50;;;;;17.41;53.96;101254.81;4958294;28;45823;-70
2021/09/29 00:26:16;;;;;;;;;3.25;0.50;;;;;17.55;53.46;101262.16;4962534;28;45448;-70
2021/09/29 00:28:41;;;;;;;;;0.00;0.00;;;;;17.55;53.43;101275.66;4962061;28;45477;-70
2021/09/29 00:31:16;;;;;;;;;0.00;0.00;;;;;17.44;54.02;101261.84;4944930;28;45337;-70
2021/09/29 00:33:46;;;;;;;;;1.00;0.50;;;;;17.47;54.02;101267.09;4945007;28;45638;-70
2021/09/29 00:36:12;;;;;;;;;0.00;0.00;;;;;17.42;53.90;101267.34;4941854;28;45283;-70
2021/09/29 00:38:38;;;;;;;;;1.00;0.25;;;;;17.46;53.86;101265.34;4959673;28;45446;-70
2021/09/29 00:41:03;;;;;;;;;0.00;0.00;;;;;17.52;53.94;101268.59;4962327;28;45279;-70
2021/09/29 00:43:28;;;;;;;;;0.00;0.00;;;;;17.46;54.27;101259.94;4934645;28;45253;-70
2021/09/29 00:45:54;;;;;;;;;0.50;0.50;;;;;17.55;54.41;101271.13;4962022;28;45628;-70
2021/09/29 00:48:19;;;;;;;;;0.00;0.00;;;;;17.33;54.49;101233.63;4944684;28;47058;-70
2021/09/29 00:50:45;;;;;;;;;0.75;0.75;;;;;17.37;54.27;101232.53;4960554;28;45361;-70
2021/09/29 00:53:10;;;;;;;;;1.50;0.50;;;;;17.30;54.41;101222.97;4962015;28;45388;-70
2021/09/29 00:55:36;;;;;;;;;1.25;0.00;;;;;17.37;54.92;101237.91;4961980;28;45563;-70
2021/09/29 00:58:02;;;;;;;;;1.25;0.00;;;;;17.36;54.58;101236.16;4961647;28;45502;-70
2021/09/29 01:00:28;;;;;;;;;1.50;0.25;;;;;17.57;54.29;101274.63;4960578;28;45409;-70
2021/09/29 01:02:53;;;;;;;;;1.00;0.00;;;;;17.55;54.79;101264.88;4962051;28;45318;-70
2021/09/29 01:05:19;;;;;;;;;1.50;0.00;;;;;17.60;54.48;101276.28;4941342;28;45948;-70
2021/09/29 01:08:03;;;;;;;;;0.00;0.00;;;;;17.56;54.89;101255.81;4947793;28;46316;-70
2021/09/29 01:10:36;;;;;;;;;0.00;0.00;;;;;17.62;54.72;101260.00;4962023;28;45451;-70
2021/09/29 01:13:13;;;;;;;;;0.25;0.00;;;;;17.60;54.89;101258.25;4961612;28;45368;-70
2021/09/29 01:16:11;;;;;;;;;1.25;0.25;;;;;17.29;55.16;101205.06;4956118;28;45389;-70
2021/09/29 01:18:43;;;;;;;;;0.00;0.00;;;;;17.38;54.77;101230.69;4961696;28;45412;-70
2021/09/29 01:21:11;;;;;;;;;0.00;0.00;;;;;17.47;55.13;101240.09;4949069;28;45596;-70
2021/09/29 01:23:58;;;;;;;;;2.00;1.00;;;;;17.56;55.05;101248.59;4961584;28;45339;-70
2021/09/29 01:26:36;;;;;;;;;0.50;0.50;;;;;17.51;54.92;101242.56;4961633;28;45533;-70
2021/09/29 01:29:10;;;;;;;;;0.50;0.00;;;;;17.38;55.03;101215.34;4961026;28;46579;-70
2021/09/29 01:31:37;;;;;;;;;0.50;0.50;;;;;17.39;55.08;101219.81;4961685;28;45397;-70
2021/09/29 01:34:06;;;;;;;;;1.50;0.00;;;;;17.55;55.14;101245.97;4949168;28;45315;-70
2021/09/29 01:36:31;;;;;;;;;0.00;0.00;;;;;17.41;55.51;101225.13;4961500;28;45233;-70
2021/09/29 01:38:58;;;;;;;;;0.00;0.00;;;;;17.37;55.17;101210.94;4940702;28;46607;-70
2021/09/29 01:41:27;;;;;;;;;0.00;0.00;;;;;17.32;55.61;101199.47;4955260;28;45479;-70
2021/09/29 01:43:53;;;;;;;;;0.75;0.75;;;;;17.35;55.04;101198.47;4959754;28;45539;-70
2021/09/29 01:46:19;;;;;;;;;1.25;0.00;;;;;17.34;55.31;101199.41;4961150;28;45570;-70
2021/09/29 01:48:59;;;;;;;;;0.25;0.00;;;;;17.37;55.86;101199.25;4961320;28;46489;-70
2021/09/29 01:51:26;;;;;;;;;0.00;0.00;;;;;17.35;55.56;101190.38;4961173;28;45417;-70
2021/09/29 01:53:55;;;;;;;;;0.00;0.00;;;;;17.61;55.52;101237.56;4961405;28;45500;-70
2021/09/29 01:56:21;;;;;;;;;1.00;1.00;;;;;17.34;56.00;101194.00;4939411;28;45512;-70
2021/09/29 01:58:47;;;;;;;;;0.00;0.00;;;;;17.35;55.95;101201.16;4952298;28;45636;-70
2021/09/29 02:01:12;;;;;;;;;0.00;0.00;;;;;17.20;55.84;101171.34;4943573;28;45195;-70
2021/09/29 02:03:43;;;;;;;;;1.00;1.00;;;;;17.30;56.32;101187.03;4961216;28;45658;-70
2021/09/29 02:06:08;;;;;;;;;0.25;0.25;;;;;17.27;56.22;101193.47;4941151;28;45498;-70
2021/09/29 02:08:33;;;;;;;;;0.50;0.25;;;;;17.45;56.64;101218.59;4950728;28;45442;-70
2021/09/29 02:10:59;;;;;;;;;1.50;0.00;;;;;17.22;56.86;101179.34;4960636;28;45299;-70
2021/09/29 02:13:24;;;;;;;;;0.00;0.00;;;;;17.31;56.83;101191.50;4960139;28;45415;-70
2021/09/29 02:15:50;;;;;;;;;1.50;0.50;;;;;17.30;56.72;101198.69;4958097;28;45589;-70
2021/09/29 02:18:15;;;;;;;;;0.00;0.00;;;;;17.28;57.19;101189.81;4960851;28;46283;-70
2021/09/29 02:20:41;;;;;;;;;2.00;0.50;;;;;17.40;57.14;101202.66;4943511;28;45271;-70
2021/09/29 02:23:07;;;;;;;;;1.00;0.50;;;;;17.30;57.30;101184.34;4960842;28;45390;-70
2021/09/29 02:25:32;;;;;;;;;0.00;0.00;;;;;17.29;57.31;101188.00;4959554;28;45382;-70
2021/09/29 02:27:58;;;;;;;;;2.75;0.00;;;;;17.17;57.67;101167.94;4960499;28;46107;-70
2021/09/29 02:30:23;;;;;;;;;1.25;0.50;;;;;17.20;57.71;101182.13;4960413;28;45216;-70
2021/09/29 02:32:49;;;;;;;;;1.00;0.00;;;;;17.24;57.62;101182.88;4961043;28;45316;-70
2021/09/29 02:35:14;;;;;;;;;0.00;0.00;;;;;17.33;58.20;101206.63;4943068;28;45181;-70
2021/09/29 02:37:40;;;;;;;;;0.00;0.00;;;;;17.37;58.13;101226.22;4939846;28;48542;-70
2021/09/29 02:40:06;;;;;;;;;0.25;0.00;;;;;17.40;58.20;101226.94;4939975;28;46029;-70
2021/09/29 02:42:32;;;;;;;;;1.00;0.00;;;;;17.18;58.26;101184.03;4960422;28;46772;-70
2021/09/29 02:44:57;;;;;;;;;0.00;0.00;;;;;17.40;58.85;101226.06;4959408;28;45569;-70
2021/09/29 02:47:23;;;;;;;;;0.25;0.00;;;;;17.20;58.70;101192.06;4960422;28;45683;-70
2021/09/29 02:49:48;;;;;;;;;1.25;0.00;;;;;17.24;59.06;101212.53;4960221;28;45509;-70
2021/09/29 02:52:14;;;;;;;;;1.00;1.00;;;;;17.21;59.22;101205.47;4960656;28;45393;-70
2021/09/29 02:54:39;;;;;;;;;0.00;0.00;;;;;17.16;59.43;101201.28;4960106;28;45416;-70
2021/09/29 02:57:05;;;;;;;;;1.25;0.00;;;;;17.09;59.66;101191.75;4963574;28;45587;-70
2021/09/29 02:59:30;;;;;;;;;1.75;1.00;;;;;17.14;59.62;101200.47;4963346;28;45296;-70
2021/09/29 03:01:55;;;;;;;;;0.00;0.00;;;;;17.23;59.62;101227.84;4946557;28;45412;-70
2021/09/29 03:04:21;;;;;;;;;0.00;0.00;;;;;17.32;60.07;101241.78;4963593;28;45151;-70
2021/09/29 03:06:46;;;;;;;;;0.75;0.75;;;;;17.15;59.88;101211.16;4956239;28;46165;-70
2021/09/29 03:09:12;;;;;;;;;0.00;0.00;;;;;17.13;60.14;101198.72;4958332;28;45260;-70
2021/09/29 03:11:37;;;;;;;;;3.00;0.00;;;;;17.24;60.31;101209.84;4963709;28;45445;-70
2021/09/29 03:14:03;;;;;;;;;2.00;0.00;;;;;17.12;60.75;101195.16;4959242;28;45339;-70
2021/09/29 03:16:28;;;;;;;;;2.00;0.25;;;;;17.12;60.10;101205.94;4963533;28;45385;-70
2021/09/29 03:18:55;;;;;;;;;0.00;0.00;;;;;17.35;60.17;101228.16;4963433;28;45258;-70
2021/09/29 03:21:20;;;;;;;;;0.75;0.00;;;;;17.19;60.12;101203.78;4963906;28;45417;-70
2021/09/29 03:23:48;;;;;;;;;0.25;0.25;;;;;17.38;60.82;101230.69;4963169;28;45346;-70
2021/09/29 03:26:14;;;;;;;;;1.00;0.50;;;;;17.14;60.78;101197.75;4963543;28;45626;-70
2021/09/29 03:28:39;;;;;;;;;0.50;0.50;;;;;17.12;60.94;101196.97;4962836;28;45211;-70
2021/09/29 03:31:05;;;;;;;;;0.50;0.50;;;;;17.10;60.79;101191.66;4946077;28;45259;-70
2021/09/29 03:33:30;;;;;;;;;0.00;0.00;;;;;17.09;61.18;101187.25;4963338;28;45514;-70
2021/09/29 03:35:56;;;;;;;;;1.25;0.00;;;;;17.17;61.27;101200.31;4945723;28;47900;-70
2021/09/29 03:38:21;;;;;;;;;0.75;0.75;;;;;17.32;61.32;101222.91;4958717;28;45484;-70
2021/09/29 03:40:46;;;;;;;;;0.00;0.00;;;;;17.30;61.30;101205.94;4963141;28;45180;-70
2021/09/29 03:43:12;;;;;;;;;0.00;0.00;;;;;17.11;61.53;101185.31;4962976;28;45148;-70
2021/09/29 03:45:38;;;;;;;;;2.00;0.75;;;;;17.19;61.36;101206.47;4962923;28;45464;-70
2021/09/29 03:48:03;;;;;;;;;0.50;0.50;;;;;17.14;61.77;101193.25;4962972;28;45468;-70
2021/09/29 03:50:29;;;;;;;;;0.00;0.00;;;;;17.13;61.81;101205.00;4963349;28;45306;-70
2021/09/29 03:52:54;;;;;;;;;1.50;0.50;;;;;17.18;61.44;101205.63;4962804;28;45572;-70
2021/09/29 03:55:22;;;;;;;;;2.00;1.75;;;;;17.37;61.78;101246.00;4962894;28;45527;-70
2021/09/29 03:57:48;;;;;;;;;0.00;0.00;;;;;17.06;61.46;101198.19;4962867;28;45477;-70
2021/09/29 04:00:14;;;;;;;;;0.00;0.00;;;;;17.29;61.27;101233.84;4962971;28;45593;-70
2021/09/29 04:02:40;;;;;;;;;4.00;1.25;;;;;17.09;61.53;101200.72;4962895;28;45401;-70
2021/09/29 04:05:07;;;;;;;;;2.25;0.50;;;;;17.20;61.51;101210.94;4962747;28;45426;-70
2021/09/29 04:07:32;;;;;;;;;1.00;1.00;;;;;17.15;61.94;101210.31;4950736;28;45240;-70
2021/09/29 04:09:58;;;;;;;;;0.50;0.50;;;;;17.07;61.81;101197.22;4963071;28;45162;-70
2021/09/29 04:12:24;;;;;;;;;0.00;0.00;;;;;17.18;61.75;101216.41;4962504;28;45450;-70
2021/09/29 04:14:49;;;;;;;;;0.50;0.50;;;;;17.35;62.01;101245.19;4962395;28;45978;-70
2021/09/29 04:17:15;;;;;;;;;0.25;0.25;;;;;17.03;61.89;101195.66;4962345;28;45394;-70
2021/09/29 04:19:40;;;;;;;;;3.00;0.00;;;;;17.14;61.96;101201.34;4962887;28;45964;-70
2021/09/29 04:22:10;;;;;;;;;0.00;0.00;;;;;17.21;61.88;101210.84;4962458;28;45325;-70
2021/09/29 04:24:37;;;;;;;;;1.50;0.50;;;;;17.30;61.94;101241.88;4962574;28;46097;-70
2021/09/29 04:27:03;;;;;;;;;2.00;0.50;;;;;17.14;62.20;101212.16;4962480;28;45378;-70
2021/09/29 04:29:28;;;;;;;;;0.50;0.50;;;;;17.17;61.98;101224.59;4941559;28;45291;-70
2021/09/29 04:31:54;;;;;;;;;0.00;0.00;;;;;17.15;62.06;101221.09;4958210;28;45363;-70
2021/09/29 04:34:19;;;;;;;;;1.00;1.00;;;;;17.33;62.29;101246.25;4941557;28;47683;-70
2021/09/29 04:36:46;;;;;;;;;1.75;1.50;;;;;17.23;62.41;101225.13;4958054;28;45499;-70
2021/09/29 04:39:12;;;;;;;;;3.00;2.00;;;;;17.32;62.02;101249.88;4955015;28;45318;-70
2021/09/29 04:41:37;;;;;;;;;0.00;0.00;;;;;17.21;62.61;101232.44;4961597;28;45449;-70
2021/09/29 04:44:03;;;;;;;;;1.00;0.50;;;;;17.20;62.80;101233.38;4961970;28;45422;-70
2021/09/29 04:46:28;;;;;;;;;0.50;0.50;;;;;17.28;62.42;101259.13;4961937;28;45406;-70
2021/09/29 04:48:54;;;;;;;;;2.00;1.00;;;;;17.16;63.08;101247.13;4962312;28;45240;-70
2021/09/29 04:51:19;;;;;;;;;0.00;0.00;;;;;17.10;62.92;101247.44;4962108;28;45376;-70
2021/09/29 04:53:48;;;;;;;;;0.50;0.50;;;;;17.04;63.11;101224.38;4962188;28;45410;-70
2021/09/29 04:56:14;;;;;;;;;2.50;0.75;;;;;17.20;62.95;101257.66;4961911;28;45251;-70
2021/09/29 04:58:40;;;;;;;;;0.50;0.00;;;;;17.15;63.34;101246.25;4962095;28;45338;-70
2021/09/29 05:01:05;;;;;;;;;0.00;0.00;;;;;17.22;63.23;101257.59;4961936;28;45473;-70
2021/09/29 05:03:33;;;;;;;;;0.25;0.25;;;;;17.17;63.25;101255.16;4962000;28;45470;-70
2021/09/29 05:05:59;;;;;;;;;0.00;0.00;;;;;17.11;63.61;101255.47;4960879;28;45342;-70
2021/09/29 05:08:27;;;;;;;;;0.00;0.00;;;;;17.18;63.41;101277.59;4948931;28;45457;-70
2021/09/29 05:11:19;;;;;;;;;0.25;0.25;;;;;17.34;63.42;101329.81;4960746;28;45580;-69
2021/09/29 05:13:45;;;;;;;;;0.50;0.50;;;;;17.32;63.29;101334.41;4961489;28;46663;-69
2021/09/29 05:16:11;;;;;;;;;2.25;0.25;;;;;17.17;63.58;101319.00;4960594;28;45568;-74
2021/09/29 05:18:36;;;;;;;;;0.00;0.00;;;;;17.29;62.98;101337.28;4957404;28;45301;-73
2021/09/29 05:21:02;;;;;;;;;0.00;0.00;;;;;16.99;62.46;101292.03;4961476;28;45337;-74
2021/09/29 05:23:27;;;;;;;;;0.00;0.00;;;;;17.02;63.37;101297.25;4940562;28;47492;-74
2021/09/29 05:25:57;;;;;;;;;1.00;0.00;;;;;16.91;63.09;101285.28;4958805;28;45422;-74
2021/09/29 05:28:26;;;;;;;;;0.00;0.00;;;;;17.08;62.89;101309.56;4961190;28;45570;-74
2021/09/29 05:30:51;;;;;;;;;0.00;0.00;;;;;17.19;63.29;101330.56;4932200;28;45374;-74
2021/09/29 05:33:17;;;;;;;;;0.75;0.00;;;;;17.13;62.77;101328.22;4940579;28;47359;-73
2021/09/29 05:35:43;;;;;;;;;0.00;0.00;;;;;17.14;62.64;101333.53;4961548;28;45422;-74
2021/09/29 05:38:08;;;;;;;;;0.00;0.00;;;;;17.02;62.48;101321.53;4960232;28;45322;-73
2021/09/29 05:40:34;;;;;;;;;0.25;0.00;;;;;17.18;62.98;101358.53;4942382;28;45465;-74
2021/09/29 05:43:00;;;;;;;;;0.00;0.00;;;;;17.08;62.15;101347.31;4960193;28;45869;-74
2021/09/29 05:45:26;;;;;;;;;0.00;0.00;;;;;16.94;62.60;101329.13;4942830;28;45489;-74
2021/09/29 05:47:51;;;;;;;;;0.00;0.00;;;;;16.89;62.05;101325.78;4961398;28;45362;-73
2021/09/29 05:50:17;;;;;;;;;1.25;0.00;;;;;16.87;62.41;101322.28;4941928;28;45280;-73
2021/09/29 05:52:43;;;;;;;;;0.00;0.00;;;;;16.90;62.30;101341.00;4960468;28;45495;-72
2021/09/29 05:55:09;;;;;;;;;0.00;0.00;;;;;16.94;62.71;101352.50;4960766;28;45377;-73
2021/09/29 05:57:34;;;;;;;;;0.00;0.00;;;;;16.84;62.50;101344.00;4961136;28;45315;-74
2021/09/29 06:00:00;;;;;;;;;0.00;0.00;;;;;17.01;62.84;101383.66;4960977;28;45164;-73
2021/09/29 06:02:25;;;;;;;;;0.00;0.00;;;;;16.70;63.04;101343.78;4961191;28;45285;-74
2021/09/29 06:04:51;;;;;;;;;0.00;0.00;;;;;16.80;62.64;101367.50;4960953;28;45255;-73
2021/09/29 06:07:17;;;;;;;;;1.00;0.00;;;;;16.78;62.74;101360.47;4958849;28;45196;-74
2021/09/29 06:09:44;;;;;;;;;0.00;0.00;;;;;16.80;62.95;101382.81;4942962;28;46006;-74
2021/09/29 06:12:11;;;;;;;;;0.00;0.00;;;;;16.74;62.75;101369.63;4940106;28;47643;-74
2021/09/29 06:14:40;;;;;;;;;0.00;0.00;;;;;16.72;62.75;101371.53;4960498;28;45425;-74
2021/09/29 06:17:27;;;;;;;;;0.00;0.00;;;;;16.95;62.71;101421.69;4960465;28;45328;-74
2021/09/29 06:19:57;;;;;;;;;0.00;0.00;;;;;16.61;63.02;101366.66;4945239;28;45321;-74
2021/09/29 06:22:22;;;;;;;;;0.00;0.00;;;;;16.60;62.39;101376.56;4959973;28;46204;-74
2021/09/29 06:24:51;;;;;;;;;0.00;0.00;;;;;16.61;62.64;101389.09;4935849;28;45419;-75
2021/09/29 06:27:16;;;;;;;;;0.00;0.00;;;;;16.60;62.74;101391.84;4933936;28;45490;-74
2021/09/29 06:29:42;;;;;;;;;0.00;0.00;;;;;16.64;62.79;101407.81;4961336;28;45413;-73
2021/09/29 06:32:08;;;;;;;;;0.50;0.00;;;;;16.67;62.35;101414.88;4963971;28;46348;-74
2021/09/29 06:34:33;;;;;;;;;0.00;0.00;;;;;16.75;62.30;101444.19;4964393;28;45559;-74
2021/09/29 06:36:59;;;;;;;;;0.00;0.00;;;;;16.74;62.58;101443.31;4963846;28;45219;-74
2021/09/29 06:39:24;;;;;;;;;0.00;0.00;;;;;16.66;63.03;101435.56;4946741;28;45541;-73
2021/09/29 06:41:50;;;;;;;;;0.00;0.00;;;;;16.71;62.80;101437.19;4934166;28;46146;-74
2021/09/29 06:44:16;;;;;;;;;0.00;0.00;;;;;16.99;62.93;101498.78;4945959;28;45710;-74
2021/09/29 06:46:44;;;;;;;;;0.00;0.00;;;;;16.96;62.66;101496.25;4941013;28;45487;-74
2021/09/29 06:49:10;;;;;;;;;0.00;0.00;;;;;16.73;62.75;101449.63;4956860;28;45464;-74
2021/09/29 06:51:35;;;;;;;;;1.75;0.50;;;;;16.89;62.47;101486.69;4956761;28;46344;-65
2021/09/29 06:54:01;;;;;;;;;0.00;0.00;;;;;16.93;62.25;101499.09;4937679;28;46064;-65
2021/09/29 06:56:27;;;;;;;;;0.00;0.00;;;;;16.92;62.72;101500.91;4958958;28;45401;-65
2021/09/29 06:58:52;;;;;;;;;0.00;0.00;;;;;16.89;62.78;101501.06;4962115;28;45483;-65
2021/09/29 07:01:20;;;;;;;;;0.00;0.00;;;;;16.88;62.93;101510.09;4961197;28;45264;-65
2021/09/29 07:03:46;;;;;;;;;0.00;0.00;;;;;16.85;63.05;101504.84;4963214;28;45389;-65
2021/09/29 07:06:12;;;;;;;;;0.00;0.00;;;;;16.87;62.71;101508.34;4963018;28;45519;-65
2021/09/29 07:08:38;;;;;;;;;0.00;0.00;;;;;16.95;62.75;101514.25;4960490;28;45416;-65
2021/09/29 07:11:04;;;;;;;;;0.75;0.00;;;;;16.90;62.45;101510.88;4949426;28;47830;-65
2021/09/29 07:13:30;;;;;;;;;0.00;0.00;;;;;16.91;62.09;101522.56;4963007;28;45373;-65
2021/09/29 07:15:56;;;;;;;;;0.00;0.00;;;;;16.67;62.12;101496.63;4953851;28;45319;-65
2021/09/29 07:18:27;;;;;;;;;1.00;0.00;;;;;16.84;62.35;101525.53;4945253;28;45607;-65
2021/09/29 07:20:52;;;;;;;;;0.00;0.00;;;;;16.84;62.37;101530.03;4952629;28;45435;-65
2021/09/29 07:23:17;;;;;;;;;0.00;0.00;;;;;16.82;62.23;101531.91;4960371;28;45281;-65
2021/09/29 07:25:43;;;;;;;;;0.00;0.00;;;;;16.65;62.29;101509.28;4963051;28;45299;-66
2021/09/29 07:28:08;;;;;;;;;0.25;0.00;;;;;16.87;62.23;101542.53;4962722;28;45473;-65
2021/09/29 07:30:34;;;;;;;;;0.00;0.00;;;;;16.82;62.26;101526.50;4941880;28;48083;-65
2021/09/29 07:33:03;;;;;;;;;0.00;0.00;;;;;16.83;61.94;101544.44;4956455;28;45369;-65
2021/09/29 07:35:30;;;;;;;;;0.00;0.00;;;;;16.88;62.07;101553.25;4962866;28;45581;-65
2021/09/29 07:37:55;;;;;;;;;0.75;0.75;;;;;16.77;62.18;101533.94;4944961;28;45586;-65
2021/09/29 07:40:21;;;;;;;;;1.00;0.00;;;;;16.81;62.24;101557.13;4938175;28;47045;-65
2021/09/29 07:42:46;;;;;;;;;0.00;0.00;;;;;16.66;62.03;101545.22;4956720;28;45403;-65
2021/09/29 07:45:12;;;;;;;;;2.25;0.00;;;;;16.74;62.51;101561.94;4949504;28;45360;-65
2021/09/29 07:47:37;;;;;;;;;1.00;0.00;;;;;16.83;62.30;101582.19;4962298;28;45426;-64
2021/09/29 07:50:06;;;;;;;;;0.00;0.00;;;;;16.75;62.13;101568.19;4962447;28;45785;-64
2021/09/29 07:52:31;;;;;;;;;0.00;0.00;;;;;16.74;62.17;101572.72;4961800;28;45391;-65
2021/09/29 07:54:57;;;;;;;;;0.00;0.00;;;;;16.73;62.17;101572.78;4962562;28;45256;-65
2021/09/29 07:57:22;;;;;;;;;1.00;0.50;;;;;16.80;62.05;101594.00;4961070;28;45495;-65
2021/09/29 07:59:48;;;;;;;;;1.00;0.00;;;;;16.71;62.03;101589.03;4962094;28;45906;-65
2021/09/29 08:02:13;;;;;;;;;2.00;1.00;;;;;16.80;61.88;101596.69;4961638;28;45323;-66
2021/09/29 08:04:39;;;;;;;;;1.75;0.00;;;;;16.79;61.86;101584.16;4962687;28;45335;-66
2021/09/29 08:07:04;;;;;;;;;0.00;0.00;;;;;16.83;61.58;101599.25;4970479;28;45508;-65
2021/09/29 08:09:29;;;;;;;;;0.00;0.00;;;;;16.75;61.70;101587.94;4944618;28;46176;-65
2021/09/29 08:11:55;;;;;;;;;1.00;0.00;;;;;16.84;61.79;101613.63;4943581;28;45335;-65
2021/09/29 08:14:23;;;;;;;;;0.00;0.00;;;;;16.84;61.69;101610.94;4962076;28;45377;-64
2021/09/29 08:16:48;;;;;;;;;1.00;0.00;;;;;16.84;61.47;101616.31;4962069;28;45793;-65
2021/09/29 08:19:15;;;;;;;;;1.50;1.00;;;;;16.83;61.52;101610.03;4943406;28;47127;-65
2021/09/29 08:21:43;;;;;;;;;0.00;0.00;;;;;16.85;61.29;101610.00;4944163;28;46045;-64
2021/09/29 08:24:28;;;;;;;;;0.00;0.00;;;;;16.91;61.13;101627.75;4944438;28;45289;-65
2021/09/29 08:27:01;;;;;;;;;0.00;0.00;;;;;16.82;60.84;101615.50;4960049;28;45390;-64
2021/09/29 08:32:08;;;;;;;;;2.75;0.00;;;;;16.90;60.89;101637.63;4961701;28;45407;-64
2021/09/29 08:37:09;;;;;;;;;2.75;0.75;;;;;16.90;60.76;101643.03;4961834;28;45172;-65
2021/09/29 08:39:42;;;;;;;;;0.00;0.00;;;;;16.97;60.75;101654.41;4959303;28;45433;-65
2021/09/29 08:42:19;;;;;;;;;2.50;0.00;;;;;16.84;60.64;101630.72;4959079;28;45382;-65
2021/09/29 08:44:58;;;;;;;;;1.50;0.25;;;;;16.86;60.24;101641.44;4961365;28;45449;-64
2021/09/29 08:47:46;;;;;;;;;0.25;0.00;;;;;16.85;60.26;101631.56;4961698;28;45168;-64
2021/09/29 08:50:27;;;;;;;;;0.50;0.00;;;;;16.88;60.20;101638.66;4950235;28;45837;-68
2021/09/29 08:53:11;;;;;;;;;0.00;0.00;;;;;16.88;60.29;101633.28;4960631;28;45376;-67
2021/09/29 09:17:38;;;;;;;;;0.00;0.00;;;;;17.06;58.93;101669.31;4948645;28;45463;-67
2021/09/29 09:20:22;;;;;;;;;1.00;1.00;;;;;16.91;58.46;101647.50;4961004;28;45241;-67
2021/09/29 09:22:58;;;;;;;;;2.00;0.00;;;;;17.23;58.68;101699.13;4960350;28;45952;-66
2021/09/29 09:25:37;;;;;;;;;0.00;0.00;;;;;17.20;58.78;101707.34;4939508;28;45454;-66
2021/09/29 09:28:04;;;;;;;;;0.75;0.00;;;;;17.01;58.14;101664.13;4954332;28;45604;-66
2021/09/29 09:30:36;;;;;;;;;0.00;0.00;;;;;17.23;57.89;101710.78;4942930;28;45466;-66
2021/09/29 09:33:03;;;;;;;;;2.75;0.00;;;;;17.27;57.39;101710.63;4960518;28;45485;-66
2021/09/29 09:35:42;;;;;;;;;0.00;0.00;;;;;17.26;57.76;101701.69;4960696;28;45639;-66
2021/09/29 09:38:20;;;;;;;;;1.50;0.00;;;;;17.37;57.38;101720.97;4944768;28;45340;-66
2021/09/29 09:40:52;;;;;;;;;0.00;0.00;;;;;17.31;57.25;101710.44;4954001;28;45911;-66
2021/09/29 09:43:20;;;;;;;;;0.50;0.50;;;;;17.23;57.34;101696.41;4938964;28;47467;-66
2021/09/29 09:45:48;;;;;;;;;1.00;1.00;;;;;17.31;57.53;101713.13;4959090;28;45630;-67
2021/09/29 09:48:26;;;;;;;;;1.00;1.00;;;;;17.22;57.10;101700.06;4960246;28;45451;-66
2021/09/29 09:51:03;;;;;;;;;0.75;0.00;;;;;17.46;56.81;101734.97;4960244;28;45384;-67
2021/09/29 09:53:29;;;;;;;;;1.50;0.25;;;;;17.25;56.71;101699.91;4951902;28;47064;-66
2021/09/29 09:55:54;;;;;;;;;0.00;0.00;;;;;17.21;56.55;101701.00;4959241;28;45503;-66
2021/09/29 09:58:20;;;;;;;;;1.00;1.00;;;;;17.26;56.45;101701.69;4960526;28;45419;-71
2021/09/29 10:00:45;;;;;;;;;0.75;0.00;;;;;17.37;55.49;101715.56;4960418;28;45793;-71
2021/09/29 10:03:11;;;;;;;;;0.50;0.00;;;;;17.41;55.47;101730.66;4960502;28;45571;-68
2021/09/29 10:05:38;;;;;;;;;0.50;0.00;;;;;17.41;55.31;101727.97;4958977;28;45446;-67
2021/09/29 10:08:06;;;;;;;;;0.00;0.00;;;;;17.58;55.08;101756.88;4957941;28;45529;-67
2021/09/29 10:10:47;;;;;;;;;0.50;0.00;;;;;17.41;55.01;101716.31;4959647;28;45480;-67
2021/09/29 10:27:11;;;;;;;;;0.00;0.00;;;;;17.29;53.28;101703.34;4959889;28;45557;-66
2021/09/29 10:29:48;;;;;;;;;0.25;0.25;;;;;17.47;53.46;101742.13;4957512;28;45350;-66
2021/09/29 10:32:20;;;;;;;;;0.00;0.00;;;;;17.50;53.06;101744.69;4958736;28;45392;-66
2021/09/29 10:35:13;;;;;;;;;1.50;1.50;;;;;17.62;53.72;101776.50;4957993;28;47187;-66
2021/09/29 11:03:18;;;;;;;;;1.00;1.00;;;;;17.15;54.74;101830.78;4959887;28;45350;-66
2021/09/29 11:35:00;;;;;;;;;1.50;1.00;;;;;17.42;53.47;101855.69;4962467;28;45383;-66
2021/09/29 12:08:29;;;;;;;;;0.00;0.00;;;;;17.17;54.88;101907.13;4962633;28;45548;-66
2021/09/29 12:10:32;;;;;;;;;0.00;0.00;;;;;16.97;55.48;101864.78;4953093;28;45685;-66
2021/09/29 12:13:01;;;;;;;;;0.00;0.00;;;;;16.95;55.73;101870.25;4958319;28;45473;-66
2021/09/29 12:15:26;;;;;;;;;0.00;0.00;;;;;17.26;55.12;101920.25;4959176;28;45712;-66
2021/09/29 12:17:52;;;;;;;;;0.00;0.00;;;;;17.03;55.39;101878.91;4938106;28;45715;-66
2021/09/29 12:20:27;;;;;;;;;0.00;0.00;;;;;17.32;55.47;101929.91;4956979;28;45493;-66
2021/09/29 12:22:57;;;;;;;;;0.00;0.00;;;;;17.31;54.90;101912.84;4950273;28;48274;-66
2021/09/29 12:26:03;;;;;;;;;1.50;0.50;;;;;17.35;55.58;101913.56;4958538;28;45664;-67
2021/09/29 12:31:31;;;;;;;;;1.50;0.75;;;;;17.28;55.62;101898.59;4958509;28;45707;-66
2021/09/29 12:36:16;;;;;;;;;1.00;1.00;;;;;17.28;56.04;101912.97;4957175;28;45785;-66
2021/09/29 12:38:47;;;;;;;;;0.00;0.00;;;;;17.34;54.00;101923.50;4958022;28;45901;-66
2021/09/29 12:41:13;;;;;;;;;0.00;0.00;;;;;16.99;53.75;101862.91;4940600;28;45568;-66
2021/09/29 12:43:39;;;;;;;;;0.00;0.00;;;;;17.32;53.26;101919.09;4962244;28;45501;-66
2021/09/29 12:46:05;;;;;;;;;0.50;0.00;;;;;17.28;53.14;101912.97;4961684;28;45449;-66
2021/09/29 12:48:30;;;;;;;;;0.25;0.25;;;;;17.25;52.88;101910.38;4961707;28;45397;-66
2021/09/29 12:51:02;;;;;;;;;0.00;0.00;;;;;17.20;52.07;101888.97;4961784;28;45458;-66
2021/09/29 12:53:48;;;;;;;;;0.00;0.00;;;;;17.14;52.21;101874.88;4939789;28;46368;-66
2021/09/29 12:56:17;;;;;;;;;1.00;0.00;;;;;17.20;52.55;101888.97;4943024;28;45414;-66
2021/09/29 12:58:46;;;;;;;;;0.50;0.00;;;;;17.36;52.66;101918.91;4948623;28;45452;-66
2021/09/29 13:01:12;;;;;;;;;0.00;0.00;;;;;17.41;51.39;101925.00;4960346;28;46274;-66
2021/09/29 13:03:37;;;;;;;;;1.00;0.00;;;;;17.27;51.46;101926.50;4961207;28;45537;-66
2021/09/29 13:06:03;;;;;;;;;0.75;0.00;;;;;17.29;51.03;101913.81;4961130;28;45327;-66
2021/09/29 13:08:29;;;;;;;;;0.00;0.00;;;;;17.29;51.22;101908.44;4942910;28;45552;-66
2021/09/29 13:10:55;;;;;;;;;0.00;0.00;;;;;17.38;51.24;101926.94;4948526;28;45359;-66
2021/09/29 13:13:21;;;;;;;;;0.00;0.00;;;;;17.15;51.35;101896.38;4960953;28;45536;-67
2021/09/29 13:15:51;;;;;;;;;0.00;0.00;;;;;17.33;51.51;101932.53;4961383;28;45409;-66
2021/09/29 13:18:25;;;;;;;;;0.25;0.25;;;;;17.48;51.19;101967.94;4961345;28;45394;-66
2021/09/29 13:21:02;;;;;;;;;1.75;0.50;;;;;17.37;50.93;101969.25;4943939;28;45510;-66
2021/09/29 13:23:32;;;;;;;;;0.25;0.00;;;;;17.29;51.26;101960.59;4960932;28;45420;-66
2021/09/29 13:36:43;;;;;;;;;1.00;0.00;;;;;17.36;51.23;101989.09;4960541;28;45610;-66
2021/09/29 13:39:13;;;;;;;;;0.00;0.00;;;;;17.40;50.45;102001.50;4939294;28;45486;-66
2021/09/29 13:41:41;;;;;;;;;0.00;0.00;;;;;17.39;50.88;101986.25;4944823;28;45713;-66
2021/09/29 13:44:08;;;;;;;;;0.00;0.00;;;;;17.39;50.55;101991.66;4950659;28;47305;-66
2021/09/29 13:46:33;;;;;;;;;0.00;0.00;;;;;17.23;49.65;101966.25;4960637;28;45553;-66
2021/09/29 13:49:01;;;;;;;;;1.00;0.00;;;;;17.20;50.04;101969.06;4943817;28;45399;-66
2021/09/29 13:51:27;;;;;;;;;1.00;0.00;;;;;17.33;49.74;101980.25;4937358;28;45811;-66